UAL1487 KIAH-MHLM
Flight info
| Callsign | UAL1487 |
|---|---|
| Flight time | 2h 12m |
| Altitude | 35000 |
| Route | FLYZA5 ANKRR L208 DUTNA DCT AVOMA DCT TUGET UB753 OMOSO |
| Aircraft | B739/M-SDE2E3FGHIRWXY/LB1 |
Departure
| Time | 2026-04-26 12:51 |
|---|---|
| Airport | George Bush Intercontinental Airport (KIAH) |
Arrival
| Time | 2026-04-26 15:03 |
|---|---|
| Airport | Ramón Villeda Morales International Airport (MHLM) |
| Time | Latitude | Longitude | Altitude | Speed | Heading |
|---|---|---|---|---|---|
| 2026-04-26 12:38 | 29.98894 | -95.34377 | 106 ft | 0 kts | 0° |
| 2026-04-26 12:40 | 29.98900 | -95.34377 | 105 ft | 3 kts | 0° |
| 2026-04-26 12:40 | 29.98929 | -95.34362 | 106 ft | 6 kts | 38° |
| 2026-04-26 12:40 | 29.98964 | -95.34342 | 106 ft | 6 kts | 7° |
| 2026-04-26 12:41 | 29.98999 | -95.34342 | 106 ft | 4 kts | 358° |
| 2026-04-26 12:41 | 29.99003 | -95.34342 | 106 ft | 0 kts | 358° |
| 2026-04-26 12:42 | 29.99023 | -95.34342 | 106 ft | 3 kts | 1° |
| 2026-04-26 12:42 | 29.99025 | -95.34342 | 106 ft | 0 kts | 1° |
| 2026-04-26 12:44 | 29.99057 | -95.34345 | 105 ft | 8 kts | 345° |
| 2026-04-26 12:44 | 29.99084 | -95.34392 | 105 ft | 8 kts | 275° |
| 2026-04-26 12:45 | 29.99085 | -95.34477 | 105 ft | 12 kts | 270° |
| 2026-04-26 12:45 | 29.99086 | -95.34578 | 106 ft | 13 kts | 270° |
| 2026-04-26 12:45 | 29.99085 | -95.34678 | 106 ft | 12 kts | 270° |
| 2026-04-26 12:45 | 29.99086 | -95.34720 | 105 ft | 0 kts | 272° |
| 2026-04-26 12:46 | 29.99086 | -95.34734 | 105 ft | 6 kts | 270° |
| 2026-04-26 12:46 | 29.99085 | -95.34825 | 106 ft | 14 kts | 270° |
| 2026-04-26 12:46 | 29.99088 | -95.34938 | 106 ft | 14 kts | 272° |
| 2026-04-26 12:46 | 29.99091 | -95.35047 | 106 ft | 13 kts | 271° |
| 2026-04-26 12:47 | 29.99091 | -95.35151 | 106 ft | 13 kts | 269° |
| 2026-04-26 12:47 | 29.99091 | -95.35252 | 106 ft | 12 kts | 270° |
| 2026-04-26 12:47 | 29.99091 | -95.35351 | 106 ft | 12 kts | 270° |
| 2026-04-26 12:47 | 29.99087 | -95.35447 | 106 ft | 12 kts | 253° |
| 2026-04-26 12:48 | 29.99026 | -95.35484 | 106 ft | 10 kts | 182° |
| 2026-04-26 12:48 | 29.98956 | -95.35485 | 106 ft | 10 kts | 182° |
| 2026-04-26 12:48 | 29.98900 | -95.35523 | 106 ft | 10 kts | 240° |
| 2026-04-26 12:48 | 29.98869 | -95.35591 | 106 ft | 9 kts | 243° |
| 2026-04-26 12:49 | 29.98838 | -95.35657 | 105 ft | 9 kts | 242° |
| 2026-04-26 12:49 | 29.98808 | -95.35721 | 107 ft | 9 kts | 242° |
| 2026-04-26 12:49 | 29.98773 | -95.35768 | 107 ft | 8 kts | 190° |
| 2026-04-26 12:49 | 29.98724 | -95.35748 | 106 ft | 9 kts | 152° |
| 2026-04-26 12:50 | 29.98584 | -95.35663 | 107 ft | 48 kts | 152° |
| 2026-04-26 12:50 | 29.98083 | -95.35356 | 106 ft | 113 kts | 152° |
| 2026-04-26 12:50 | 29.97225 | -95.34831 | 104 ft | 165 kts | 152° |
| 2026-04-26 12:50 | 29.96111 | -95.34156 | 350 ft | 187 kts | 153° |
| 2026-04-26 12:51 | 29.94956 | -95.33470 | 1073 ft | 188 kts | 151° |
| 2026-04-26 12:51 | 29.93980 | -95.32426 | 1573 ft | 199 kts | 119° |
| 2026-04-26 12:51 | 29.93329 | -95.30984 | 2008 ft | 213 kts | 121° |
| 2026-04-26 12:51 | 29.92490 | -95.29478 | 2322 ft | 230 kts | 126° |
| 2026-04-26 12:52 | 29.91529 | -95.27929 | 2645 ft | 248 kts | 128° |
| 2026-04-26 12:52 | 29.90465 | -95.26307 | 3213 ft | 258 kts | 129° |
| 2026-04-26 12:52 | 29.89356 | -95.24670 | 3788 ft | 260 kts | 129° |
| 2026-04-26 12:52 | 29.88271 | -95.23011 | 4233 ft | 260 kts | 127° |
| 2026-04-26 12:53 | 29.87212 | -95.21293 | 4825 ft | 265 kts | 127° |
| 2026-04-26 12:53 | 29.86137 | -95.19549 | 5004 ft | 268 kts | 127° |
| 2026-04-26 12:53 | 29.85048 | -95.17800 | 5000 ft | 269 kts | 127° |
| 2026-04-26 12:53 | 29.83961 | -95.16051 | 5008 ft | 267 kts | 127° |
| 2026-04-26 12:54 | 29.82893 | -95.14332 | 5010 ft | 268 kts | 127° |
| 2026-04-26 12:54 | 29.81647 | -95.12749 | 5035 ft | 269 kts | 144° |
| 2026-04-26 12:54 | 29.80122 | -95.11487 | 5612 ft | 271 kts | 144° |
| 2026-04-26 12:54 | 29.78590 | -95.10165 | 6453 ft | 271 kts | 144° |
| 2026-04-26 12:55 | 29.77077 | -95.08841 | 7130 ft | 277 kts | 144° |
| 2026-04-26 12:55 | 29.75550 | -95.07502 | 7739 ft | 282 kts | 146° |
| 2026-04-26 12:55 | 29.73817 | -95.06440 | 8372 ft | 285 kts | 161° |
| 2026-04-26 12:55 | 29.71938 | -95.05680 | 9038 ft | 289 kts | 162° |
| 2026-04-26 12:56 | 29.70027 | -95.04915 | 9645 ft | 293 kts | 162° |
| 2026-04-26 12:56 | 29.68086 | -95.04119 | 10234 ft | 300 kts | 161° |
| 2026-04-26 12:56 | 29.66056 | -95.03271 | 10412 ft | 322 kts | 161° |
| 2026-04-26 12:56 | 29.63888 | -95.02357 | 10590 ft | 342 kts | 161° |
| 2026-04-26 12:57 | 29.61592 | -95.01389 | 10759 ft | 360 kts | 161° |
| 2026-04-26 12:57 | 29.59209 | -95.00381 | 11156 ft | 369 kts | 161° |
| 2026-04-26 12:57 | 29.56785 | -94.99356 | 11706 ft | 373 kts | 161° |
| 2026-04-26 12:58 | 29.51861 | -94.97272 | 12800 ft | 382 kts | 162° |
| 2026-04-26 12:58 | 29.49356 | -94.96215 | 13343 ft | 386 kts | 162° |
| 2026-04-26 12:58 | 29.46830 | -94.95150 | 13955 ft | 388 kts | 162° |
| 2026-04-26 12:58 | 29.44286 | -94.94078 | 14484 ft | 392 kts | 162° |
| 2026-04-26 12:59 | 29.41717 | -94.92996 | 15010 ft | 395 kts | 162° |
| 2026-04-26 12:59 | 29.39122 | -94.91903 | 15539 ft | 399 kts | 162° |
| 2026-04-26 12:59 | 29.37396 | -94.91175 | 15885 ft | 401 kts | 162° |
| 2026-04-26 12:59 | 29.33870 | -94.89691 | 16545 ft | 406 kts | 162° |
| 2026-04-26 13:00 | 29.32109 | -94.88950 | 16866 ft | 408 kts | 163° |
| 2026-04-26 13:00 | 29.29431 | -94.87825 | 17356 ft | 411 kts | 163° |
| 2026-04-26 13:00 | 29.26786 | -94.86532 | 17821 ft | 419 kts | 151° |
| 2026-04-26 13:00 | 29.24528 | -94.84381 | 18270 ft | 426 kts | 137° |
| 2026-04-26 13:01 | 29.22391 | -94.82011 | 18732 ft | 429 kts | 138° |
| 2026-04-26 13:01 | 29.20225 | -94.79638 | 19150 ft | 433 kts | 139° |
| 2026-04-26 13:01 | 29.18029 | -94.77255 | 19553 ft | 437 kts | 139° |
| 2026-04-26 13:01 | 29.15802 | -94.74857 | 19971 ft | 441 kts | 139° |
| 2026-04-26 13:02 | 29.13558 | -94.72450 | 20372 ft | 444 kts | 139° |
| 2026-04-26 13:02 | 29.11295 | -94.70029 | 20760 ft | 448 kts | 139° |
| 2026-04-26 13:02 | 29.09014 | -94.67591 | 21125 ft | 451 kts | 139° |
| 2026-04-26 13:02 | 29.06713 | -94.65134 | 21492 ft | 454 kts | 139° |
| 2026-04-26 13:03 | 29.04397 | -94.62663 | 21860 ft | 457 kts | 139° |
| 2026-04-26 13:03 | 29.02067 | -94.60179 | 22182 ft | 460 kts | 139° |
| 2026-04-26 13:03 | 28.99716 | -94.57675 | 22491 ft | 464 kts | 139° |
| 2026-04-26 13:03 | 28.97347 | -94.55152 | 22828 ft | 467 kts | 139° |
| 2026-04-26 13:04 | 28.94969 | -94.52621 | 23149 ft | 469 kts | 139° |
| 2026-04-26 13:04 | 28.92569 | -94.50069 | 23469 ft | 472 kts | 139° |
| 2026-04-26 13:04 | 28.90164 | -94.47511 | 23787 ft | 474 kts | 139° |
| 2026-04-26 13:04 | 28.87742 | -94.44939 | 24080 ft | 477 kts | 139° |
| 2026-04-26 13:05 | 28.85305 | -94.42350 | 24358 ft | 480 kts | 139° |
| 2026-04-26 13:05 | 28.82890 | -94.39789 | 24631 ft | 482 kts | 140° |
| 2026-04-26 13:05 | 28.80394 | -94.37143 | 24903 ft | 485 kts | 139° |
| 2026-04-26 13:05 | 28.77951 | -94.34554 | 25172 ft | 487 kts | 139° |
| 2026-04-26 13:06 | 28.75461 | -94.31917 | 25456 ft | 490 kts | 140° |
| 2026-04-26 13:06 | 28.72965 | -94.29277 | 25755 ft | 491 kts | 140° |
| 2026-04-26 13:06 | 28.70460 | -94.26630 | 26009 ft | 493 kts | 139° |
| 2026-04-26 13:06 | 28.67938 | -94.23965 | 26255 ft | 496 kts | 139° |
| 2026-04-26 13:07 | 28.65399 | -94.21284 | 26516 ft | 498 kts | 140° |
| 2026-04-26 13:07 | 28.62853 | -94.18597 | 26779 ft | 500 kts | 140° |
| 2026-04-26 13:07 | 28.60295 | -94.15899 | 27045 ft | 502 kts | 140° |
| 2026-04-26 13:07 | 28.57728 | -94.13194 | 27304 ft | 505 kts | 140° |
| 2026-04-26 13:08 | 28.55148 | -94.10477 | 27564 ft | 506 kts | 140° |
| 2026-04-26 13:08 | 28.52558 | -94.07753 | 27794 ft | 509 kts | 140° |
| 2026-04-26 13:08 | 28.49951 | -94.05012 | 28011 ft | 511 kts | 140° |
| 2026-04-26 13:08 | 28.47336 | -94.02265 | 28236 ft | 514 kts | 140° |
| 2026-04-26 13:09 | 28.44706 | -93.99503 | 28484 ft | 515 kts | 140° |
| 2026-04-26 13:09 | 28.42070 | -93.96735 | 28739 ft | 516 kts | 140° |
| 2026-04-26 13:09 | 28.39427 | -93.93963 | 28965 ft | 519 kts | 140° |
| 2026-04-26 13:09 | 28.36770 | -93.91179 | 29187 ft | 520 kts | 140° |
| 2026-04-26 13:10 | 28.34110 | -93.88393 | 29484 ft | 520 kts | 140° |
| 2026-04-26 13:10 | 28.31455 | -93.85614 | 29851 ft | 519 kts | 140° |
| 2026-04-26 13:10 | 28.28808 | -93.82844 | 30194 ft | 518 kts | 140° |
| 2026-04-26 13:10 | 28.26156 | -93.80074 | 30490 ft | 518 kts | 140° |
| 2026-04-26 13:11 | 28.23502 | -93.77304 | 30823 ft | 518 kts | 140° |
| 2026-04-26 13:11 | 28.20858 | -93.74546 | 31206 ft | 516 kts | 140° |
| 2026-04-26 13:11 | 28.18224 | -93.71800 | 31587 ft | 514 kts | 140° |
| 2026-04-26 13:11 | 28.15592 | -93.69057 | 31911 ft | 513 kts | 140° |
| 2026-04-26 13:12 | 28.12962 | -93.66319 | 32199 ft | 513 kts | 140° |
| 2026-04-26 13:12 | 28.10336 | -93.63587 | 32536 ft | 512 kts | 140° |
| 2026-04-26 13:12 | 28.07722 | -93.60869 | 32904 ft | 509 kts | 140° |
| 2026-04-26 13:12 | 28.05115 | -93.58160 | 33211 ft | 508 kts | 140° |
| 2026-04-26 13:13 | 28.02510 | -93.55455 | 33461 ft | 508 kts | 140° |
| 2026-04-26 13:13 | 27.99904 | -93.52753 | 33711 ft | 508 kts | 140° |
| 2026-04-26 13:13 | 27.97298 | -93.50052 | 33994 ft | 507 kts | 140° |
| 2026-04-26 13:13 | 27.94703 | -93.47363 | 34297 ft | 505 kts | 140° |
| 2026-04-26 13:14 | 27.92116 | -93.44685 | 34567 ft | 504 kts | 140° |
| 2026-04-26 13:14 | 27.89523 | -93.42002 | 34745 ft | 506 kts | 140° |
| 2026-04-26 13:14 | 27.86927 | -93.39316 | 34903 ft | 507 kts | 140° |
| 2026-04-26 13:14 | 27.84322 | -93.36624 | 35043 ft | 508 kts | 140° |
| 2026-04-26 13:15 | 27.79098 | -93.31230 | 35035 ft | 508 kts | 140° |
| 2026-04-26 13:15 | 27.73894 | -93.25864 | 35036 ft | 505 kts | 140° |
| 2026-04-26 13:16 | 27.68701 | -93.20621 | 35022 ft | 502 kts | 148° |
| 2026-04-26 13:16 | 27.65690 | -93.18759 | 35042 ft | 488 kts | 165° |
| 2026-04-26 13:16 | 27.62479 | -93.17496 | 35049 ft | 490 kts | 166° |
| 2026-04-26 13:17 | 27.52723 | -93.13674 | 35047 ft | 499 kts | 165° |
| 2026-04-26 13:18 | 27.46199 | -93.10996 | 34915 ft | 498 kts | 165° |
| 2026-04-26 13:18 | 27.42950 | -93.09669 | 34924 ft | 496 kts | 165° |
| 2026-04-26 13:19 | 27.33203 | -93.05717 | 34925 ft | 498 kts | 165° |
| 2026-04-26 13:19 | 27.26674 | -93.03073 | 34913 ft | 500 kts | 165° |
| 2026-04-26 13:20 | 27.20124 | -93.00422 | 34913 ft | 501 kts | 165° |
| 2026-04-26 13:20 | 27.13558 | -92.97766 | 34907 ft | 502 kts | 165° |
| 2026-04-26 13:21 | 27.06994 | -92.95112 | 34906 ft | 501 kts | 165° |
| 2026-04-26 13:21 | 27.00433 | -92.92464 | 34903 ft | 501 kts | 165° |
| 2026-04-26 13:22 | 26.93881 | -92.89824 | 34906 ft | 500 kts | 165° |
| 2026-04-26 13:22 | 26.87341 | -92.87190 | 34916 ft | 499 kts | 165° |
| 2026-04-26 13:23 | 26.80823 | -92.84536 | 34914 ft | 500 kts | 161° |
| 2026-04-26 13:23 | 26.74701 | -92.80783 | 34923 ft | 504 kts | 152° |
| 2026-04-26 13:24 | 26.68730 | -92.76682 | 34920 ft | 503 kts | 152° |
| 2026-04-26 13:24 | 26.62796 | -92.72642 | 34915 ft | 503 kts | 152° |
| 2026-04-26 13:25 | 26.56802 | -92.68622 | 34917 ft | 502 kts | 152° |
| 2026-04-26 13:25 | 26.50797 | -92.64623 | 34924 ft | 502 kts | 152° |
| 2026-04-26 13:26 | 26.44793 | -92.60630 | 34928 ft | 502 kts | 152° |
| 2026-04-26 13:26 | 26.38786 | -92.56637 | 34924 ft | 503 kts | 152° |
| 2026-04-26 13:27 | 26.32772 | -92.52644 | 34929 ft | 503 kts | 153° |
| 2026-04-26 13:27 | 26.26755 | -92.48649 | 34927 ft | 504 kts | 152° |
| 2026-04-26 13:28 | 26.20717 | -92.44652 | 34928 ft | 505 kts | 152° |
| 2026-04-26 13:28 | 26.14665 | -92.40648 | 34927 ft | 507 kts | 152° |
| 2026-04-26 13:29 | 26.08598 | -92.36639 | 34929 ft | 507 kts | 152° |
| 2026-04-26 13:29 | 26.02525 | -92.32632 | 34923 ft | 508 kts | 152° |
| 2026-04-26 13:30 | 25.96441 | -92.28624 | 34928 ft | 508 kts | 152° |
| 2026-04-26 13:30 | 25.90362 | -92.24619 | 34922 ft | 508 kts | 152° |
| 2026-04-26 13:31 | 25.84287 | -92.20625 | 34923 ft | 507 kts | 152° |
| 2026-04-26 13:31 | 25.78218 | -92.16637 | 34927 ft | 507 kts | 152° |
| 2026-04-26 13:32 | 25.72159 | -92.12661 | 34925 ft | 506 kts | 152° |
| 2026-04-26 13:32 | 25.66139 | -92.08718 | 34926 ft | 505 kts | 152° |
| 2026-04-26 13:33 | 25.60089 | -92.04756 | 34924 ft | 505 kts | 152° |
| 2026-04-26 13:33 | 25.54038 | -92.00800 | 34927 ft | 504 kts | 152° |
| 2026-04-26 13:34 | 25.47996 | -91.96857 | 34923 ft | 504 kts | 152° |
| 2026-04-26 13:34 | 25.41965 | -91.92923 | 34942 ft | 503 kts | 152° |
| 2026-04-26 13:35 | 25.35935 | -91.88994 | 34945 ft | 503 kts | 152° |
| 2026-04-26 13:35 | 25.29913 | -91.85077 | 34945 ft | 502 kts | 152° |
| 2026-04-26 13:36 | 25.23887 | -91.81158 | 34946 ft | 502 kts | 152° |
| 2026-04-26 13:36 | 25.17873 | -91.77250 | 34950 ft | 502 kts | 152° |
| 2026-04-26 13:37 | 25.11854 | -91.73352 | 34950 ft | 501 kts | 152° |
| 2026-04-26 13:37 | 25.05837 | -91.69457 | 34952 ft | 502 kts | 152° |
| 2026-04-26 13:38 | 24.99818 | -91.65564 | 34950 ft | 502 kts | 152° |
| 2026-04-26 13:38 | 24.93792 | -91.61669 | 34942 ft | 502 kts | 152° |
| 2026-04-26 13:39 | 24.87769 | -91.57783 | 34942 ft | 501 kts | 152° |
| 2026-04-26 13:39 | 24.81755 | -91.53905 | 34946 ft | 501 kts | 152° |
| 2026-04-26 13:40 | 24.75739 | -91.50031 | 34946 ft | 501 kts | 152° |
| 2026-04-26 13:40 | 24.69727 | -91.46162 | 34944 ft | 500 kts | 152° |
| 2026-04-26 13:41 | 24.63727 | -91.42304 | 34946 ft | 499 kts | 152° |
| 2026-04-26 13:41 | 24.57739 | -91.38462 | 34946 ft | 498 kts | 152° |
| 2026-04-26 13:42 | 24.51757 | -91.34627 | 34946 ft | 498 kts | 152° |
| 2026-04-26 13:42 | 24.45621 | -91.31168 | 34951 ft | 494 kts | 159° |
| 2026-04-26 13:43 | 24.39314 | -91.28184 | 34949 ft | 493 kts | 160° |
| 2026-04-26 13:43 | 24.33040 | -91.25250 | 34945 ft | 493 kts | 160° |
| 2026-04-26 13:44 | 24.26742 | -91.22248 | 34930 ft | 494 kts | 159° |
| 2026-04-26 13:44 | 24.20454 | -91.19210 | 34937 ft | 494 kts | 159° |
| 2026-04-26 13:45 | 24.14165 | -91.16166 | 34934 ft | 494 kts | 159° |
| 2026-04-26 13:45 | 24.07871 | -91.13131 | 34935 ft | 495 kts | 159° |
| 2026-04-26 13:46 | 24.01567 | -91.10097 | 34945 ft | 495 kts | 159° |
| 2026-04-26 13:46 | 23.95263 | -91.07064 | 34943 ft | 495 kts | 159° |
| 2026-04-26 13:47 | 23.88962 | -91.04038 | 34932 ft | 495 kts | 159° |
| 2026-04-26 13:47 | 23.82666 | -91.01013 | 34930 ft | 494 kts | 159° |
| 2026-04-26 13:48 | 23.76383 | -90.97997 | 34925 ft | 493 kts | 159° |
| 2026-04-26 13:48 | 23.70101 | -90.94989 | 34926 ft | 493 kts | 159° |
| 2026-04-26 13:49 | 23.64881 | -90.92492 | 34925 ft | 493 kts | 159° |
| 2026-04-26 13:49 | 23.58606 | -90.89494 | 34923 ft | 492 kts | 159° |
| 2026-04-26 13:50 | 23.51315 | -90.86010 | 34927 ft | 492 kts | 159° |
| 2026-04-26 13:50 | 23.46057 | -90.83501 | 34927 ft | 492 kts | 159° |
| 2026-04-26 13:51 | 23.39785 | -90.80510 | 34926 ft | 492 kts | 159° |
| 2026-04-26 13:51 | 23.33506 | -90.77521 | 34926 ft | 492 kts | 159° |
| 2026-04-26 13:52 | 23.27233 | -90.74539 | 34922 ft | 492 kts | 159° |
| 2026-04-26 13:52 | 23.20950 | -90.71553 | 34916 ft | 493 kts | 159° |
| 2026-04-26 13:53 | 23.14673 | -90.68573 | 34916 ft | 492 kts | 159° |
| 2026-04-26 13:53 | 23.08396 | -90.65597 | 34915 ft | 492 kts | 159° |
| 2026-04-26 13:54 | 23.02125 | -90.62625 | 34916 ft | 492 kts | 159° |
| 2026-04-26 13:54 | 22.95855 | -90.59659 | 34918 ft | 492 kts | 159° |
| 2026-04-26 13:55 | 22.87505 | -90.55714 | 34923 ft | 492 kts | 159° |
| 2026-04-26 13:56 | 22.77035 | -90.50774 | 34915 ft | 492 kts | 159° |
| 2026-04-26 13:56 | 22.70802 | -90.47833 | 34905 ft | 492 kts | 159° |
| 2026-04-26 13:57 | 22.64530 | -90.44880 | 34911 ft | 491 kts | 159° |
| 2026-04-26 13:57 | 22.58261 | -90.41933 | 34906 ft | 491 kts | 159° |
| 2026-04-26 13:58 | 22.51994 | -90.38992 | 34910 ft | 491 kts | 159° |
| 2026-04-26 13:58 | 22.45734 | -90.36052 | 34909 ft | 490 kts | 159° |
| 2026-04-26 13:59 | 22.39481 | -90.33117 | 34905 ft | 490 kts | 159° |
| 2026-04-26 13:59 | 22.33231 | -90.30189 | 34909 ft | 489 kts | 159° |
| 2026-04-26 14:00 | 22.20753 | -90.24353 | 34908 ft | 488 kts | 159° |
| 2026-04-26 14:01 | 22.14531 | -90.21446 | 34906 ft | 487 kts | 159° |
| 2026-04-26 14:01 | 22.08312 | -90.18544 | 34906 ft | 487 kts | 159° |
| 2026-04-26 14:02 | 22.02097 | -90.15648 | 34905 ft | 486 kts | 159° |
| 2026-04-26 14:02 | 21.95884 | -90.12752 | 34909 ft | 487 kts | 159° |
| 2026-04-26 14:03 | 21.89667 | -90.09859 | 34907 ft | 487 kts | 159° |
| 2026-04-26 14:03 | 21.83447 | -90.06966 | 34909 ft | 487 kts | 159° |
| 2026-04-26 14:04 | 21.77222 | -90.04075 | 34909 ft | 487 kts | 159° |
| 2026-04-26 14:04 | 21.70989 | -90.01183 | 34910 ft | 488 kts | 159° |
| 2026-04-26 14:05 | 21.64753 | -89.98440 | 34907 ft | 487 kts | 161° |
| 2026-04-26 14:05 | 21.58422 | -89.95823 | 34907 ft | 488 kts | 162° |
| 2026-04-26 14:06 | 21.52090 | -89.93209 | 34908 ft | 488 kts | 161° |
| 2026-04-26 14:06 | 21.45760 | -89.90565 | 34909 ft | 488 kts | 161° |
| 2026-04-26 14:07 | 21.39435 | -89.87912 | 34907 ft | 488 kts | 161° |
| 2026-04-26 14:07 | 21.33112 | -89.85257 | 34905 ft | 488 kts | 161° |
| 2026-04-26 14:08 | 21.26793 | -89.82610 | 34910 ft | 487 kts | 161° |
| 2026-04-26 14:08 | 21.20483 | -89.79970 | 34903 ft | 487 kts | 161° |
| 2026-04-26 14:09 | 21.14182 | -89.77338 | 34910 ft | 486 kts | 161° |
| 2026-04-26 14:09 | 21.07883 | -89.74709 | 34905 ft | 486 kts | 161° |
| 2026-04-26 14:10 | 21.01590 | -89.72084 | 34907 ft | 485 kts | 162° |
| 2026-04-26 14:10 | 20.95301 | -89.69462 | 34909 ft | 485 kts | 162° |
| 2026-04-26 14:11 | 20.85878 | -89.65540 | 34912 ft | 484 kts | 162° |
| 2026-04-26 14:11 | 20.79602 | -89.62930 | 34907 ft | 484 kts | 162° |
| 2026-04-26 14:12 | 20.73322 | -89.60320 | 34909 ft | 484 kts | 162° |
| 2026-04-26 14:12 | 20.67084 | -89.57730 | 34905 ft | 484 kts | 162° |
| 2026-04-26 14:13 | 20.57662 | -89.53826 | 34906 ft | 485 kts | 162° |
| 2026-04-26 14:14 | 20.51377 | -89.51222 | 34906 ft | 484 kts | 162° |
| 2026-04-26 14:14 | 20.45095 | -89.48621 | 34908 ft | 484 kts | 162° |
| 2026-04-26 14:15 | 20.38816 | -89.46024 | 34915 ft | 484 kts | 162° |
| 2026-04-26 14:15 | 20.32544 | -89.43433 | 34943 ft | 483 kts | 162° |
| 2026-04-26 14:16 | 20.26282 | -89.40847 | 34959 ft | 483 kts | 162° |
| 2026-04-26 14:16 | 20.20011 | -89.38261 | 34958 ft | 483 kts | 162° |
| 2026-04-26 14:17 | 20.13736 | -89.35677 | 34954 ft | 484 kts | 162° |
| 2026-04-26 14:17 | 20.07454 | -89.33090 | 34957 ft | 484 kts | 162° |
| 2026-04-26 14:18 | 20.01165 | -89.30504 | 34944 ft | 485 kts | 162° |
| 2026-04-26 14:18 | 19.94876 | -89.27919 | 34944 ft | 484 kts | 162° |
| 2026-04-26 14:19 | 19.88589 | -89.25339 | 34946 ft | 484 kts | 162° |
| 2026-04-26 14:19 | 19.82347 | -89.22777 | 34948 ft | 483 kts | 162° |
| 2026-04-26 14:20 | 19.76077 | -89.20205 | 34949 ft | 483 kts | 162° |
| 2026-04-26 14:20 | 19.69819 | -89.17642 | 34951 ft | 482 kts | 162° |
| 2026-04-26 14:21 | 19.63571 | -89.15086 | 34921 ft | 481 kts | 162° |
| 2026-04-26 14:21 | 19.57334 | -89.12537 | 34917 ft | 480 kts | 162° |
| 2026-04-26 14:22 | 19.51111 | -89.09994 | 34916 ft | 479 kts | 162° |
| 2026-04-26 14:22 | 19.44895 | -89.07456 | 34916 ft | 478 kts | 162° |
| 2026-04-26 14:23 | 19.38686 | -89.04923 | 34914 ft | 478 kts | 162° |
| 2026-04-26 14:23 | 19.32483 | -89.02395 | 34918 ft | 477 kts | 162° |
| 2026-04-26 14:24 | 19.26284 | -88.99871 | 34916 ft | 477 kts | 162° |
| 2026-04-26 14:24 | 19.20082 | -88.97347 | 34920 ft | 477 kts | 162° |
| 2026-04-26 14:25 | 19.13880 | -88.94827 | 34916 ft | 478 kts | 162° |
| 2026-04-26 14:25 | 19.07680 | -88.92309 | 34918 ft | 477 kts | 162° |
| 2026-04-26 14:26 | 19.01479 | -88.89791 | 34921 ft | 477 kts | 162° |
| 2026-04-26 14:26 | 18.95282 | -88.87275 | 34917 ft | 477 kts | 162° |
| 2026-04-26 14:27 | 18.89081 | -88.84763 | 34916 ft | 477 kts | 162° |
| 2026-04-26 14:27 | 18.82878 | -88.82252 | 34919 ft | 477 kts | 162° |
| 2026-04-26 14:28 | 18.76682 | -88.79745 | 34914 ft | 477 kts | 162° |
| 2026-04-26 14:28 | 18.70489 | -88.77243 | 34916 ft | 477 kts | 162° |
| 2026-04-26 14:29 | 18.64344 | -88.74759 | 34917 ft | 476 kts | 162° |
| 2026-04-26 14:29 | 18.58157 | -88.72262 | 34917 ft | 476 kts | 162° |
| 2026-04-26 14:30 | 18.51976 | -88.69768 | 34916 ft | 476 kts | 162° |
| 2026-04-26 14:30 | 18.45801 | -88.67278 | 34915 ft | 475 kts | 162° |
| 2026-04-26 14:31 | 18.39637 | -88.64796 | 34919 ft | 474 kts | 162° |
| 2026-04-26 14:31 | 18.33479 | -88.62367 | 34914 ft | 472 kts | 162° |
| 2026-04-26 14:32 | 18.27317 | -88.59960 | 34917 ft | 472 kts | 162° |
| 2026-04-26 14:32 | 18.21166 | -88.57551 | 34918 ft | 471 kts | 162° |
| 2026-04-26 14:33 | 18.15024 | -88.55147 | 34917 ft | 471 kts | 162° |
| 2026-04-26 14:33 | 18.08877 | -88.52770 | 34919 ft | 471 kts | 162° |
| 2026-04-26 14:34 | 18.02731 | -88.50400 | 34916 ft | 471 kts | 162° |
| 2026-04-26 14:34 | 17.96586 | -88.48024 | 34919 ft | 470 kts | 162° |
| 2026-04-26 14:35 | 17.90445 | -88.45647 | 34911 ft | 471 kts | 162° |
| 2026-04-26 14:35 | 17.84310 | -88.43246 | 34906 ft | 470 kts | 162° |
| 2026-04-26 14:36 | 17.78180 | -88.40844 | 34906 ft | 470 kts | 162° |
| 2026-04-26 14:36 | 17.72057 | -88.38449 | 34908 ft | 469 kts | 162° |
| 2026-04-26 14:37 | 17.65978 | -88.36076 | 34905 ft | 469 kts | 162° |
| 2026-04-26 14:37 | 17.59869 | -88.33690 | 34907 ft | 469 kts | 162° |
| 2026-04-26 14:38 | 17.53736 | -88.31347 | 34905 ft | 468 kts | 166° |
| 2026-04-26 14:38 | 17.47393 | -88.29967 | 34908 ft | 465 kts | 173° |
| 2026-04-26 14:39 | 17.41017 | -88.28830 | 34790 ft | 465 kts | 173° |
| 2026-04-26 14:39 | 17.38854 | -88.28432 | 34468 ft | 467 kts | 173° |
| 2026-04-26 14:39 | 17.35720 | -88.27839 | 34018 ft | 462 kts | 173° |
| 2026-04-26 14:39 | 17.32569 | -88.27232 | 33524 ft | 458 kts | 172° |
| 2026-04-26 14:40 | 17.29452 | -88.26623 | 33018 ft | 454 kts | 172° |
| 2026-04-26 14:40 | 17.26360 | -88.26018 | 32520 ft | 451 kts | 172° |
| 2026-04-26 14:40 | 17.23286 | -88.25418 | 32017 ft | 448 kts | 172° |
| 2026-04-26 14:40 | 17.20235 | -88.24824 | 31517 ft | 444 kts | 172° |
| 2026-04-26 14:41 | 17.17208 | -88.24236 | 31023 ft | 441 kts | 173° |
| 2026-04-26 14:41 | 17.14202 | -88.23652 | 30533 ft | 438 kts | 173° |
| 2026-04-26 14:41 | 17.11212 | -88.23070 | 29948 ft | 437 kts | 172° |
| 2026-04-26 14:41 | 17.08216 | -88.22477 | 29352 ft | 437 kts | 172° |
| 2026-04-26 14:42 | 17.05232 | -88.21883 | 28808 ft | 435 kts | 172° |
| 2026-04-26 14:42 | 17.02267 | -88.21292 | 28324 ft | 432 kts | 172° |
| 2026-04-26 14:42 | 16.99328 | -88.20707 | 27839 ft | 429 kts | 172° |
| 2026-04-26 14:42 | 16.96405 | -88.20126 | 27355 ft | 426 kts | 172° |
| 2026-04-26 14:43 | 16.93504 | -88.19551 | 26883 ft | 423 kts | 171° |
| 2026-04-26 14:43 | 16.90620 | -88.18979 | 26405 ft | 421 kts | 171° |
| 2026-04-26 14:43 | 16.87751 | -88.18411 | 25930 ft | 418 kts | 171° |
| 2026-04-26 14:43 | 16.84898 | -88.17862 | 25386 ft | 417 kts | 172° |
| 2026-04-26 14:44 | 16.82051 | -88.17325 | 24926 ft | 414 kts | 172° |
| 2026-04-26 14:44 | 16.79223 | -88.16795 | 24457 ft | 412 kts | 172° |
| 2026-04-26 14:44 | 16.76412 | -88.16269 | 23999 ft | 409 kts | 171° |
| 2026-04-26 14:44 | 16.73623 | -88.15746 | 23534 ft | 406 kts | 171° |
| 2026-04-26 14:45 | 16.70850 | -88.15224 | 23091 ft | 403 kts | 171° |
| 2026-04-26 14:45 | 16.69023 | -88.14881 | 22793 ft | 402 kts | 171° |
| 2026-04-26 14:45 | 16.65355 | -88.14190 | 22192 ft | 399 kts | 171° |
| 2026-04-26 14:45 | 16.62636 | -88.13678 | 21752 ft | 396 kts | 171° |
| 2026-04-26 14:46 | 16.59932 | -88.13169 | 21311 ft | 394 kts | 171° |
| 2026-04-26 14:46 | 16.57245 | -88.12662 | 20869 ft | 391 kts | 171° |
| 2026-04-26 14:46 | 16.54573 | -88.12159 | 20427 ft | 389 kts | 171° |
| 2026-04-26 14:46 | 16.51915 | -88.11659 | 19991 ft | 387 kts | 171° |
| 2026-04-26 14:47 | 16.49271 | -88.11162 | 19557 ft | 385 kts | 171° |
| 2026-04-26 14:47 | 16.46679 | -88.10675 | 19129 ft | 383 kts | 171° |
| 2026-04-26 14:47 | 16.44063 | -88.10183 | 18690 ft | 381 kts | 171° |
| 2026-04-26 14:47 | 16.41462 | -88.09693 | 18267 ft | 379 kts | 171° |
| 2026-04-26 14:48 | 16.38875 | -88.09207 | 17883 ft | 376 kts | 171° |
| 2026-04-26 14:48 | 16.36316 | -88.08726 | 17501 ft | 372 kts | 171° |
| 2026-04-26 14:48 | 16.33768 | -88.08247 | 17079 ft | 371 kts | 170° |
| 2026-04-26 14:48 | 16.31232 | -88.07771 | 16666 ft | 370 kts | 170° |
| 2026-04-26 14:49 | 16.28706 | -88.07297 | 16234 ft | 368 kts | 170° |
| 2026-04-26 14:49 | 16.26195 | -88.06826 | 15820 ft | 366 kts | 170° |
| 2026-04-26 14:49 | 16.23699 | -88.06358 | 15419 ft | 363 kts | 170° |
| 2026-04-26 14:49 | 16.21217 | -88.05892 | 15001 ft | 362 kts | 170° |
| 2026-04-26 14:50 | 16.18748 | -88.05428 | 14588 ft | 359 kts | 170° |
| 2026-04-26 14:50 | 16.16297 | -88.04968 | 14182 ft | 357 kts | 169° |
| 2026-04-26 14:50 | 16.13857 | -88.04511 | 13758 ft | 355 kts | 169° |
| 2026-04-26 14:50 | 16.11475 | -88.03884 | 13331 ft | 352 kts | 154° |
| 2026-04-26 14:51 | 16.09329 | -88.02692 | 12961 ft | 348 kts | 149° |
| 2026-04-26 14:51 | 16.07222 | -88.01467 | 12547 ft | 346 kts | 149° |
| 2026-04-26 14:51 | 16.05122 | -88.00251 | 12145 ft | 345 kts | 149° |
| 2026-04-26 14:51 | 16.03030 | -87.99050 | 11746 ft | 342 kts | 150° |
| 2026-04-26 14:52 | 16.00950 | -87.97865 | 11356 ft | 340 kts | 150° |
| 2026-04-26 14:52 | 15.98881 | -87.96692 | 10967 ft | 338 kts | 150° |
| 2026-04-26 14:52 | 15.96818 | -87.95527 | 10558 ft | 336 kts | 150° |
| 2026-04-26 14:52 | 15.94770 | -87.94371 | 10237 ft | 332 kts | 150° |
| 2026-04-26 14:53 | 15.92775 | -87.93246 | 10116 ft | 321 kts | 150° |
| 2026-04-26 14:53 | 15.90840 | -87.92156 | 9980 ft | 311 kts | 150° |
| 2026-04-26 14:53 | 15.88976 | -87.91108 | 9949 ft | 298 kts | 150° |
| 2026-04-26 14:53 | 15.87158 | -87.90084 | 9437 ft | 303 kts | 150° |
| 2026-04-26 14:54 | 15.85305 | -87.89038 | 9045 ft | 304 kts | 150° |
| 2026-04-26 14:54 | 15.83445 | -87.87989 | 8687 ft | 303 kts | 150° |
| 2026-04-26 14:54 | 15.81738 | -87.86735 | 8296 ft | 301 kts | 130° |
| 2026-04-26 14:54 | 15.80569 | -87.84944 | 7914 ft | 300 kts | 120° |
| 2026-04-26 14:55 | 15.79526 | -87.83078 | 7542 ft | 298 kts | 119° |
| 2026-04-26 14:55 | 15.78495 | -87.81216 | 7178 ft | 297 kts | 119° |
| 2026-04-26 14:55 | 15.77460 | -87.79366 | 6804 ft | 296 kts | 120° |
| 2026-04-26 14:55 | 15.76421 | -87.77530 | 6462 ft | 294 kts | 120° |
| 2026-04-26 14:56 | 15.75397 | -87.75730 | 6349 ft | 285 kts | 120° |
| 2026-04-26 14:56 | 15.74408 | -87.73992 | 6230 ft | 275 kts | 120° |
| 2026-04-26 14:56 | 15.73243 | -87.72472 | 6084 ft | 267 kts | 143° |
| 2026-04-26 14:56 | 15.71601 | -87.71679 | 5934 ft | 262 kts | 167° |
| 2026-04-26 14:57 | 15.69788 | -87.71687 | 5648 ft | 262 kts | 193° |
| 2026-04-26 14:57 | 15.68186 | -87.72562 | 5360 ft | 263 kts | 217° |
| 2026-04-26 14:57 | 15.66745 | -87.73730 | 5051 ft | 262 kts | 217° |
| 2026-04-26 14:57 | 15.65354 | -87.74878 | 4896 ft | 254 kts | 218° |
| 2026-04-26 14:58 | 15.64013 | -87.76033 | 4613 ft | 248 kts | 219° |
| 2026-04-26 14:58 | 15.62719 | -87.77159 | 4283 ft | 243 kts | 219° |
| 2026-04-26 14:58 | 15.61434 | -87.78278 | 3965 ft | 240 kts | 219° |
| 2026-04-26 14:58 | 15.60168 | -87.79381 | 3653 ft | 236 kts | 219° |
| 2026-04-26 14:59 | 15.58920 | -87.80467 | 3336 ft | 232 kts | 219° |
| 2026-04-26 14:59 | 15.57700 | -87.81529 | 3036 ft | 227 kts | 220° |
| 2026-04-26 14:59 | 15.56506 | -87.82566 | 2753 ft | 220 kts | 219° |
| 2026-04-26 14:59 | 15.55725 | -87.83245 | 2539 ft | 213 kts | 219° |
| 2026-04-26 15:00 | 15.54290 | -87.84496 | 2191 ft | 195 kts | 219° |
| 2026-04-26 15:00 | 15.53285 | -87.85368 | 1938 ft | 182 kts | 219° |
| 2026-04-26 15:00 | 15.52338 | -87.86192 | 1717 ft | 178 kts | 219° |
| 2026-04-26 15:00 | 15.51405 | -87.87003 | 1471 ft | 170 kts | 219° |
| 2026-04-26 15:01 | 15.50532 | -87.87765 | 1249 ft | 159 kts | 219° |
| 2026-04-26 15:01 | 15.49687 | -87.88501 | 1044 ft | 159 kts | 219° |
| 2026-04-26 15:01 | 15.48834 | -87.89238 | 794 ft | 161 kts | 219° |
| 2026-04-26 15:01 | 15.47991 | -87.89982 | 595 ft | 158 kts | 220° |
| 2026-04-26 15:02 | 15.47152 | -87.90719 | 375 ft | 158 kts | 219° |
| 2026-04-26 15:02 | 15.46311 | -87.91446 | 176 ft | 157 kts | 220° |
| 2026-04-26 15:02 | 15.45499 | -87.92147 | 110 ft | 137 kts | 220° |
| 2026-04-26 15:02 | 15.44940 | -87.92635 | 108 ft | 75 kts | 220° |
| 2026-04-26 15:03 | 15.44623 | -87.92908 | 109 ft | 43 kts | 219° |
| 2026-04-26 15:03 | 15.44524 | -87.93045 | 109 ft | 15 kts | 292° |
| 2026-04-26 15:03 | 15.44607 | -87.93082 | 107 ft | 15 kts | 24° |
| 2026-04-26 15:03 | 15.44685 | -87.93018 | 107 ft | 14 kts | 40° |
| 2026-04-26 15:04 | 15.44758 | -87.92955 | 104 ft | 13 kts | 40° |
| 2026-04-26 15:04 | 15.44827 | -87.92895 | 106 ft | 13 kts | 40° |
| 2026-04-26 15:04 | 15.44895 | -87.92836 | 106 ft | 13 kts | 40° |
| 2026-04-26 15:04 | 15.44961 | -87.92778 | 106 ft | 12 kts | 40° |
| 2026-04-26 15:05 | 15.45026 | -87.92722 | 106 ft | 12 kts | 40° |
| 2026-04-26 15:05 | 15.45072 | -87.92682 | 106 ft | 14 kts | 40° |
| 2026-04-26 15:05 | 15.45170 | -87.92595 | 107 ft | 14 kts | 41° |
| 2026-04-26 15:05 | 15.45242 | -87.92534 | 106 ft | 13 kts | 30° |
| 2026-04-26 15:06 | 15.45319 | -87.92561 | 106 ft | 13 kts | 309° |
| 2026-04-26 15:06 | 15.45378 | -87.92632 | 104 ft | 13 kts | 318° |
| 2026-04-26 15:06 | 15.45454 | -87.92635 | 105 ft | 11 kts | 348° |
| 2026-04-26 15:06 | 15.45491 | -87.92683 | 105 ft | 9 kts | 311° |
| 2026-04-26 15:07 | 15.45501 | -87.92695 | 105 ft | 0 kts | 309° |